Time;durP1;ratioP1;P1;durP2;ratioP2;P2;SDS_P1;SDS_P2;PMS_P1;PMS_P2;Temp;Humidity;BMP_temperature;BMP_pressure;BME280_temperature;BME280_humidity;BME280_pressure;Samples;Min_cycle;Max_cycle;Signal;HPM_P1;HPM_P2
2022/08/03 00:01:33;;;;;;;1999.90;999.90;;;16.50;99.90;;;;;;5036515;28;20059;-86
2022/08/03 00:03:59;;;;;;;1999.90;999.90;;;16.50;99.90;;;;;;5037821;28;20044;-86
2022/08/03 00:06:25;;;;;;;1999.90;999.90;;;16.60;99.90;;;;;;5021600;28;20542;-86
2022/08/03 00:08:51;;;;;;;1999.90;999.90;;;16.50;99.90;;;;;;5040078;28;20389;-86
2022/08/03 00:11:16;;;;;;;1999.90;999.90;;;16.50;99.90;;;;;;5033370;28;20040;-86
2022/08/03 00:13:42;;;;;;;1999.90;999.90;;;16.50;99.90;;;;;;5031882;28;20507;-86
2022/08/03 00:16:09;;;;;;;1999.90;999.90;;;16.40;99.90;;;;;;5036537;28;20033;-86
2022/08/03 00:18:35;;;;;;;1999.90;999.90;;;16.50;99.90;;;;;;5030517;28;20030;-86
2022/08/03 00:21:02;;;;;;;1999.90;999.90;;;16.50;99.90;;;;;;5034034;28;20132;-86
2022/08/03 00:23:27;;;;;;;1999.90;999.90;;;16.30;99.90;;;;;;5029273;28;20095;-87
2022/08/03 00:25:53;;;;;;;1999.90;999.90;;;16.20;99.90;;;;;;5027120;28;20631;-86
2022/08/03 00:28:19;;;;;;;1999.90;999.90;;;16.10;99.90;;;;;;5023947;28;20469;-86
2022/08/03 00:30:44;;;;;;;1999.90;999.90;;;16.00;99.90;;;;;;5044857;28;20048;-86
2022/08/03 00:33:10;;;;;;;1999.90;999.90;;;16.00;99.90;;;;;;5032861;28;20523;-86
2022/08/03 00:35:36;;;;;;;1999.90;999.90;;;16.10;99.90;;;;;;5035208;28;20464;-87
2022/08/03 00:38:01;;;;;;;1999.90;999.90;;;16.00;99.90;;;;;;5036351;28;20653;-86
2022/08/03 00:40:27;;;;;;;1999.90;999.90;;;16.00;99.90;;;;;;5030833;28;20038;-86
2022/08/03 00:42:58;;;;;;;1999.90;999.90;;;15.90;99.90;;;;;;5036025;28;20724;-86
2022/08/03 00:45:26;;;;;;;1999.90;999.90;;;15.80;99.90;;;;;;5036113;28;20029;-87
2022/08/03 00:47:52;;;;;;;1999.90;999.90;;;15.80;99.90;;;;;;5029703;28;20436;-86
2022/08/03 00:50:19;;;;;;;1999.90;999.90;;;15.80;99.90;;;;;;5033447;28;20025;-86
2022/08/03 00:52:46;;;;;;;1999.90;999.90;;;15.80;99.90;;;;;;5032099;28;20074;-86
2022/08/03 00:55:11;;;;;;;1999.90;999.90;;;15.80;99.90;;;;;;5028420;28;20106;-86
2022/08/03 00:57:38;;;;;;;1999.90;999.90;;;15.80;99.90;;;;;;5024219;28;20477;-89
2022/08/03 01:00:08;;;;;;;1999.90;999.90;;;15.80;99.90;;;;;;5029166;28;20044;-86
2022/08/03 01:02:34;;;;;;;1999.90;999.90;;;15.90;99.90;;;;;;5041299;28;20081;-86
2022/08/03 01:05:00;;;;;;;1999.90;999.90;;;15.70;99.90;;;;;;5021615;28;20067;-86
2022/08/03 01:07:51;;;;;;;1999.90;999.90;;;15.60;99.90;;;;;;5036590;28;20072;-86
2022/08/03 01:10:46;;;;;;;1999.90;999.90;;;15.60;99.90;;;;;;5036275;28;20025;-85
2022/08/03 01:13:28;;;;;;;1999.90;999.90;;;15.50;99.90;;;;;;5034652;28;20033;-86
2022/08/03 01:16:27;;;;;;;1999.90;999.90;;;15.40;99.90;;;;;;5032445;28;20074;-86
2022/08/03 01:19:12;;;;;;;1999.90;999.90;;;15.30;99.90;;;;;;5017290;28;20057;-85
2022/08/03 01:22:14;;;;;;;1999.90;999.90;;;15.30;99.90;;;;;;5034767;28;20065;-86
2022/08/03 01:24:56;;;;;;;1999.90;999.90;;;15.20;99.90;;;;;;5032610;28;20061;-85
2022/08/03 01:27:32;;;;;;;1999.90;999.90;;;15.20;99.90;;;;;;5024331;28;20820;-86
2022/08/03 01:30:03;;;;;;;1999.90;999.90;;;15.20;99.90;;;;;;5040816;28;20107;-85
2022/08/03 01:33:03;;;;;;;1999.90;999.90;;;15.20;99.90;;;;;;5041463;28;20037;-85
2022/08/03 01:35:37;;;;;;;1999.90;999.90;;;15.20;99.90;;;;;;5039004;28;20056;-85
2022/08/03 01:38:12;;;;;;;1999.90;999.90;;;15.30;99.90;;;;;;5040732;28;20041;-85
2022/08/03 01:40:41;;;;;;;1999.90;999.90;;;15.30;99.90;;;;;;5036590;28;20036;-89
2022/08/03 01:43:10;;;;;;;1999.90;999.90;;;15.20;99.90;;;;;;5032682;28;20061;-85
2022/08/03 01:45:37;;;;;;;1999.90;999.90;;;15.10;99.90;;;;;;5029212;28;20028;-85
2022/08/03 01:48:04;;;;;;;1999.90;999.90;;;15.00;99.90;;;;;;5029958;28;20116;-85
2022/08/03 01:50:31;;;;;;;1999.90;999.90;;;15.10;99.90;;;;;;5026189;28;20036;-85
2022/08/03 01:52:58;;;;;;;1999.90;999.90;;;15.20;99.90;;;;;;5025930;28;20412;-86
2022/08/03 01:55:28;;;;;;;1999.90;999.90;;;15.20;99.90;;;;;;5030391;28;20056;-85
2022/08/03 01:57:55;;;;;;;1999.90;999.90;;;15.20;99.90;;;;;;5035267;28;20041;-85
2022/08/03 02:00:22;;;;;;;1999.90;999.90;;;15.20;99.90;;;;;;5027696;28;20511;-85
2022/08/03 02:02:49;;;;;;;1999.90;999.90;;;15.10;99.90;;;;;;5015569;28;20057;-86
2022/08/03 02:05:18;;;;;;;1999.90;999.90;;;15.10;99.90;;;;;;5037338;28;20219;-86
2022/08/03 02:07:45;;;;;;;1999.90;999.90;;;15.10;99.90;;;;;;5036849;28;20056;-85
2022/08/03 02:10:14;;;;;;;1999.90;999.90;;;15.10;99.90;;;;;;5040081;28;20041;-85
2022/08/03 02:12:43;;;;;;;1999.90;999.90;;;15.00;99.90;;;;;;5032812;28;20032;-86
2022/08/03 02:15:09;;;;;;;1999.90;999.90;;;15.10;99.90;;;;;;5033334;28;20441;-86
2022/08/03 02:17:37;;;;;;;1999.90;999.90;;;15.10;99.90;;;;;;5038069;28;20116;-85
2022/08/03 02:20:04;;;;;;;1999.90;999.90;;;15.00;99.90;;;;;;5018481;28;20397;-86
2022/08/03 02:22:31;;;;;;;1999.90;999.90;;;15.00;99.90;;;;;;5031796;28;20040;-86
2022/08/03 02:24:57;;;;;;;1999.90;999.90;;;15.00;99.90;;;;;;5033153;28;20087;-86
2022/08/03 02:27:26;;;;;;;1999.90;999.90;;;15.10;99.90;;;;;;5029963;28;20378;-85
2022/08/03 02:30:01;;;;;;;1999.90;999.90;;;15.00;99.90;;;;;;5042453;28;20056;-86
2022/08/03 02:32:51;;;;;;;1999.90;999.90;;;15.00;99.90;;;;;;5035845;28;20045;-86
2022/08/03 02:35:19;;;;;;;1999.90;999.90;;;15.00;99.90;;;;;;5043895;28;20519;-85
2022/08/03 02:37:49;;;;;;;1999.90;999.90;;;15.10;99.90;;;;;;5041028;28;20051;-85
2022/08/03 02:40:16;;;;;;;1999.90;999.90;;;15.10;99.90;;;;;;5020601;28;20114;-85
2022/08/03 02:42:45;;;;;;;1999.90;999.90;;;15.10;99.90;;;;;;5037637;28;20038;-84
2022/08/03 02:45:12;;;;;;;1999.90;999.90;;;15.10;99.90;;;;;;5038137;28;20036;-85
2022/08/03 02:47:40;;;;;;;1999.90;999.90;;;15.10;99.90;;;;;;5038510;28;20087;-86
2022/08/03 02:50:11;;;;;;;1999.90;999.90;;;15.10;99.90;;;;;;5034036;28;20034;-86
2022/08/03 02:52:38;;;;;;;1999.90;999.90;;;15.10;99.90;;;;;;5032239;28;20366;-86
2022/08/03 02:55:05;;;;;;;1999.90;999.90;;;15.00;99.90;;;;;;5010818;28;20038;-85
2022/08/03 02:57:33;;;;;;;1999.90;999.90;;;15.00;99.90;;;;;;5031190;28;20030;-85
2022/08/03 03:00:00;;;;;;;1999.90;999.90;;;15.10;99.90;;;;;;5043866;28;20055;-87
2022/08/03 03:02:27;;;;;;;1999.90;999.90;;;15.00;99.90;;;;;;5042178;28;20358;-85
2022/08/03 03:04:55;;;;;;;1999.90;999.90;;;15.00;99.90;;;;;;5040186;28;20048;-85
2022/08/03 03:07:21;;;;;;;1999.90;999.90;;;15.10;99.90;;;;;;5037152;28;20060;-86
2022/08/03 03:09:48;;;;;;;1999.90;999.90;;;15.10;99.90;;;;;;5039827;28;20096;-85
2022/08/03 03:12:15;;;;;;;1999.90;999.90;;;15.00;99.90;;;;;;5034385;28;20049;-86
2022/08/03 03:14:41;;;;;;;1999.90;999.90;;;15.00;99.90;;;;;;5035836;28;20029;-86
2022/08/03 03:17:09;;;;;;;1999.90;999.90;;;15.00;99.90;;;;;;5035871;28;20044;-86
2022/08/03 03:19:37;;;;;;;1999.90;999.90;;;15.00;99.90;;;;;;5033385;28;20501;-86
2022/08/03 03:22:05;;;;;;;1999.90;999.90;;;15.00;99.90;;;;;;5032166;28;20168;-86
2022/08/03 03:24:33;;;;;;;1999.90;999.90;;;14.90;99.90;;;;;;5016360;28;20044;-85
2022/08/03 03:26:59;;;;;;;1999.90;999.90;;;14.80;99.90;;;;;;5026659;28;20064;-85
2022/08/03 03:29:25;;;;;;;1999.90;999.90;;;14.80;99.90;;;;;;5036866;28;20029;-86
2022/08/03 03:31:52;;;;;;;1999.90;999.90;;;14.80;99.90;;;;;;5021649;28;20051;-85
2022/08/03 03:34:18;;;;;;;1999.90;999.90;;;14.70;99.90;;;;;;5038425;28;20025;-87
2022/08/03 03:36:44;;;;;;;1999.90;999.90;;;14.60;99.90;;;;;;5040362;28;20020;-86
2022/08/03 03:39:10;;;;;;;1999.90;999.90;;;14.50;99.90;;;;;;5038762;28;20059;-86
2022/08/03 03:41:38;;;;;;;1999.90;999.90;;;14.50;99.90;;;;;;5036547;28;20029;-86
2022/08/03 03:44:04;;;;;;;1999.90;999.90;;;14.40;99.90;;;;;;5031045;28;20115;-86
2022/08/03 03:46:30;;;;;;;1999.90;999.90;;;14.40;99.90;;;;;;5029581;28;20079;-86
2022/08/03 03:48:56;;;;;;;1999.90;999.90;;;14.40;99.90;;;;;;5010085;28;20124;-86
2022/08/03 03:51:22;;;;;;;1999.90;999.90;;;14.40;99.90;;;;;;5030636;28;20152;-86
2022/08/03 03:54:06;;;;;;;1999.90;999.90;;;14.40;99.90;;;;;;5030967;28;20082;-86
2022/08/03 03:56:32;;;;;;;1999.90;999.90;;;14.40;99.90;;;;;;5027057;28;20527;-86
2022/08/03 03:58:58;;;;;;;1999.90;999.90;;;14.30;99.90;;;;;;5042290;28;20304;-86
2022/08/03 04:01:24;;;;;;;1999.90;999.90;;;14.40;99.90;;;;;;5019370;28;20065;-85
2022/08/03 04:03:50;;;;;;;1999.90;999.90;;;14.30;99.90;;;;;;5006775;28;1116740;-86
2022/08/03 04:11:50;;;;;;;1999.90;999.90;;;14.20;99.90;;;;;;5027985;28;20519;-85
2022/08/03 04:14:19;;;;;;;1999.90;999.90;;;14.20;99.90;;;;;;5034279;28;20039;-85
2022/08/03 04:16:50;;;;;;;1999.90;999.90;;;14.30;99.90;;;;;;5031049;28;20028;-86
2022/08/03 04:19:27;;;;;;;1999.90;999.90;;;14.40;99.90;;;;;;5030027;28;20124;-86
2022/08/03 04:21:57;;;;;;;1999.90;999.90;;;14.50;99.90;;;;;;5027488;28;20136;-85
2022/08/03 04:24:24;;;;;;;;;;;14.50;99.90;;;;;;5032189;28;20044;-85
2022/08/03 04:26:50;;;;;;;1999.90;999.90;;;14.50;99.90;;;;;;5031088;28;19942;-85
2022/08/03 04:29:17;;;;;;;1999.90;999.90;;;14.70;99.90;;;;;;5042060;28;21481;-86
2022/08/03 04:31:45;;;;;;;1999.90;999.90;;;14.70;99.90;;;;;;5035126;28;20128;-85
2022/08/03 04:34:11;;;;;;;1999.90;999.90;;;14.70;99.90;;;;;;5041721;28;20036;-86
2022/08/03 04:36:48;;;;;;;1999.90;999.90;;;14.90;99.90;;;;;;5038612;28;20496;-86
2022/08/03 04:39:22;;;;;;;1999.90;999.90;;;15.00;99.90;;;;;;5031056;28;20120;-85
2022/08/03 04:41:48;;;;;;;1999.90;999.90;;;15.00;99.90;;;;;;5039237;28;20086;-85
2022/08/03 04:44:14;;;;;;;1999.90;999.90;;;15.10;99.90;;;;;;5033357;28;20034;-86
2022/08/03 04:46:43;;;;;;;1999.90;999.90;;;15.20;99.90;;;;;;5031714;28;20029;-86
2022/08/03 04:49:09;;;;;;;1999.90;999.90;;;15.30;99.90;;;;;;5032706;28;20053;-86
2022/08/03 04:51:37;;;;;;;1999.90;999.90;;;15.40;99.90;;;;;;5032176;28;20108;-85
2022/08/03 04:54:03;;;;;;;1999.90;999.90;;;15.50;99.90;;;;;;5029792;28;20061;-86
2022/08/03 04:56:29;;;;;;;1999.90;999.90;;;15.50;99.90;;;;;;5028592;28;20049;-86
2022/08/03 04:58:55;;;;;;;1999.90;999.90;;;15.70;99.90;;;;;;5007662;28;20408;-86
2022/08/03 05:01:21;;;;;;;1999.90;999.90;;;15.80;99.90;;;;;;5034871;28;20032;-86
2022/08/03 05:03:47;;;;;;;1999.90;999.90;;;15.90;99.90;;;;;;5025980;28;20053;-87
2022/08/03 05:06:12;;;;;;;1999.90;999.90;;;15.90;99.90;;;;;;5022212;28;20037;-86
2022/08/03 05:08:39;;;;;;;1999.90;999.90;;;16.00;99.90;;;;;;5023101;28;20029;-87
2022/08/03 05:11:05;;;;;;;1999.90;999.90;;;16.20;99.90;;;;;;5026378;28;20037;-86
2022/08/03 05:13:31;;;;;;;1999.90;999.90;;;16.30;99.90;;;;;;5020574;28;20147;-86
2022/08/03 05:15:56;;;;;;;1999.90;999.90;;;16.40;99.90;;;;;;5012179;28;20543;-86
2022/08/03 05:18:22;;;;;;;1999.90;999.90;;;16.60;99.90;;;;;;5025120;28;20029;-87
2022/08/03 05:20:48;;;;;;;1999.90;999.90;;;16.70;99.90;;;;;;5014535;28;20424;-86
2022/08/03 05:23:14;;;;;;;1999.90;999.90;;;16.80;99.90;;;;;;5030463;28;20056;-87
2022/08/03 05:25:39;;;;;;;1999.90;999.90;;;16.80;99.90;;;;;;5028878;28;20037;-87
2022/08/03 05:28:05;;;;;;;1999.90;999.90;;;17.00;99.90;;;;;;5034251;28;20033;-89
2022/08/03 05:30:31;;;;;;;1999.90;999.90;;;17.10;99.90;;;;;;4998400;28;20136;-79
2022/08/03 05:32:57;;;;;;;1999.90;999.90;;;17.20;99.90;;;;;;5028503;28;20572;-78
2022/08/03 05:35:24;;;;;;;1999.90;999.90;;;17.20;99.90;;;;;;5032123;28;21375;-79
2022/08/03 05:37:49;;;;;;;1999.90;999.90;;;17.20;99.90;;;;;;5033791;28;20490;-78
2022/08/03 05:40:15;;;;;;;1999.90;999.90;;;17.40;99.90;;;;;;5025796;28;20038;-79
2022/08/03 05:42:41;;;;;;;1999.90;999.90;;;17.50;99.90;;;;;;5033583;28;20546;-82
2022/08/03 05:45:13;;;;;;;1999.90;999.90;;;17.40;99.90;;;;;;5028748;28;20115;-85
2022/08/03 05:47:43;;;;;;;1999.90;999.90;;;17.50;99.90;;;;;;5035035;28;20059;-79
2022/08/03 05:50:10;;;;;;;1999.90;999.90;;;17.60;99.90;;;;;;5027350;28;20033;-81
2022/08/03 05:52:36;;;;;;;1999.90;999.90;;;17.50;99.90;;;;;;5028260;28;20511;-80
2022/08/03 05:55:04;;;;;;;1999.90;999.90;;;17.60;99.90;;;;;;5026369;28;20642;-82
2022/08/03 05:57:29;;;;;;;1999.90;999.90;;;17.70;99.90;;;;;;5027471;28;20060;-80
2022/08/03 05:59:55;;;;;;;1999.90;999.90;;;17.80;99.90;;;;;;5022342;28;20052;-81
2022/08/03 06:02:21;;;;;;;1999.90;999.90;;;17.80;99.90;;;;;;5024728;28;20239;-79
2022/08/03 06:04:46;;;;;;;1999.90;999.90;;;18.00;99.90;;;;;;5023673;28;20029;-80
2022/08/03 06:07:12;;;;;;;1999.90;999.90;;;18.00;99.90;;;;;;5024934;28;21282;-80
2022/08/03 06:09:38;;;;;;;1999.90;999.90;;;18.10;99.90;;;;;;5014818;28;20037;-80
2022/08/03 06:12:04;;;;;;;1999.90;999.90;;;18.20;99.90;;;;;;5030926;28;20049;-83
2022/08/03 06:14:29;;;;;;;1999.90;999.90;;;18.20;99.90;;;;;;5033978;28;20031;-82
2022/08/03 06:16:55;;;;;;;1999.90;999.90;;;18.30;99.90;;;;;;5027732;28;20017;-82
2022/08/03 06:19:22;;;;;;;1999.90;999.90;;;18.40;99.90;;;;;;5028658;28;20186;-83
2022/08/03 06:21:47;;;;;;;1999.90;999.90;;;18.50;99.90;;;;;;5028500;28;20037;-84
2022/08/03 06:24:13;;;;;;;1999.90;999.90;;;18.60;99.90;;;;;;5028951;28;20033;-79
2022/08/03 06:26:38;;;;;;;1999.90;999.90;;;18.70;99.90;;;;;;5027309;28;20115;-83
2022/08/03 06:29:04;;;;;;;1999.90;999.90;;;18.80;99.90;;;;;;5032148;28;20401;-85
2022/08/03 06:31:30;;;;;;;1999.90;999.90;;;18.90;99.90;;;;;;5029026;28;20563;-81
2022/08/03 06:33:55;;;;;;;1999.90;999.90;;;18.90;99.90;;;;;;5029534;28;20477;-82
2022/08/03 06:36:21;;;;;;;1999.90;999.90;;;19.00;99.90;;;;;;5031802;28;21245;-81
2022/08/03 06:38:46;;;;;;;1999.90;999.90;;;19.20;99.90;;;;;;5031340;28;20037;-83
2022/08/03 06:41:12;;;;;;;1999.90;999.90;;;19.30;99.90;;;;;;5034918;28;20041;-85
2022/08/03 06:43:38;;;;;;;1999.90;999.90;;;19.40;99.90;;;;;;5030452;28;20071;-82
2022/08/03 06:46:04;;;;;;;1999.90;999.90;;;19.60;99.90;;;;;;5029377;28;20029;-80
2022/08/03 06:48:30;;;;;;;1999.90;999.90;;;19.70;99.90;;;;;;5029678;28;20022;-81
2022/08/03 06:50:56;;;;;;;1999.90;999.90;;;19.80;99.90;;;;;;5028678;28;20622;-83
2022/08/03 06:53:22;;;;;;;1999.90;999.90;;;19.80;99.90;;;;;;5027353;28;20038;-86
2022/08/03 06:55:47;;;;;;;1999.90;999.90;;;19.90;99.90;;;;;;5029046;28;20030;-81
2022/08/03 06:58:13;;;;;;;1999.90;999.90;;;19.90;99.90;;;;;;5039146;28;20456;-81
2022/08/03 07:00:38;;;;;;;1999.90;999.90;;;20.10;99.90;;;;;;5038488;28;20049;-81
2022/08/03 07:03:04;;;;;;;1999.90;999.90;;;20.10;99.90;;;;;;5035561;28;20514;-80
2022/08/03 07:05:32;;;;;;;1999.90;999.90;;;20.30;99.90;;;;;;5038017;28;20112;-82
2022/08/03 07:07:58;;;;;;;1999.90;999.90;;;20.40;99.90;;;;;;5035022;28;20033;-80
2022/08/03 07:10:24;;;;;;;1999.90;999.90;;;20.50;99.90;;;;;;5039290;28;20032;-80
2022/08/03 07:12:49;;;;;;;1999.90;999.90;;;20.60;98.70;;;;;;5037102;28;20041;-82
2022/08/03 07:15:17;;;;;;;1999.90;999.90;;;20.70;98.90;;;;;;5031045;28;20044;-81
2022/08/03 07:17:43;;;;;;;1999.90;999.90;;;20.70;98.40;;;;;;5031151;28;20033;-82
2022/08/03 07:20:08;;;;;;;1999.90;999.90;;;20.90;99.90;;;;;;5030986;28;20033;-82
2022/08/03 07:22:34;;;;;;;1999.90;999.90;;;21.00;98.60;;;;;;5033408;28;20033;-80
2022/08/03 07:25:00;;;;;;;1999.90;999.90;;;21.10;98.10;;;;;;5030786;28;20036;-81
2022/08/03 07:27:28;;;;;;;1999.90;999.90;;;21.40;99.60;;;;;;5035057;28;20029;-81
2022/08/03 07:29:55;;;;;;;1999.90;999.90;;;21.50;97.30;;;;;;5035669;28;20104;-79
2022/08/03 07:32:21;;;;;;;1999.90;999.90;;;21.60;97.40;;;;;;5042478;28;20033;-81
2022/08/03 07:34:46;;;;;;;1999.90;999.90;;;21.60;96.50;;;;;;5038625;28;20033;-81
2022/08/03 07:37:12;;;;;;;1999.90;999.90;;;21.70;96.40;;;;;;5029424;28;20121;-81
2022/08/03 07:39:38;;;;;;;1999.90;999.90;;;21.70;96.80;;;;;;5044565;28;20057;-88
2022/08/03 07:42:04;;;;;;;1999.90;999.90;;;21.90;97.90;;;;;;5033802;28;20065;-83
2022/08/03 07:44:29;;;;;;;1999.90;999.90;;;22.10;96.20;;;;;;5037873;28;20824;-79
2022/08/03 07:46:56;;;;;;;1999.90;999.90;;;22.10;95.20;;;;;;5030332;28;20124;-81
2022/08/03 07:49:21;;;;;;;1999.90;999.90;;;22.20;94.80;;;;;;5030875;28;20040;-81
2022/08/03 07:52:46;;;;;;;1999.90;999.90;;;22.40;95.50;;;;;;5034691;28;20025;-80
2022/08/03 07:54:33;;;;;;;1999.90;999.90;;;22.60;92.30;;;;;;5032601;28;20370;-82
2022/08/03 07:56:58;;;;;;;1999.90;999.90;;;22.70;93.60;;;;;;5016970;28;20033;-81
2022/08/03 07:59:24;;;;;;;1999.90;999.90;;;22.80;92.30;;;;;;5040472;28;20102;-81
2022/08/03 08:01:52;;;;;;;1999.90;999.90;;;22.90;91.60;;;;;;5041541;28;20041;-82
2022/08/03 08:04:18;;;;;;;1999.90;999.90;;;23.00;91.20;;;;;;5038706;28;20049;-83
2022/08/03 08:06:43;;;;;;;1999.90;999.90;;;23.10;91.10;;;;;;5017733;28;20057;-82
2022/08/03 08:09:10;;;;;;;1999.90;999.90;;;23.40;91.30;;;;;;5035661;28;20041;-82
2022/08/03 08:11:36;;;;;;;1999.90;999.90;;;23.50;90.10;;;;;;5037985;28;20110;-83
2022/08/03 08:14:03;;;;;;;1999.90;999.90;;;23.50;90.30;;;;;;5032018;28;20116;-80
2022/08/03 08:16:29;;;;;;;1999.90;999.90;;;23.80;89.10;;;;;;5034902;28;20436;-82
2022/08/03 08:18:55;;;;;;;1999.90;999.90;;;23.90;90.40;;;;;;5025992;28;20518;-81
2022/08/03 08:21:20;;;;;;;1999.90;999.90;;;24.20;80.30;;;;;;5032277;28;20572;-83
2022/08/03 08:23:46;;;;;;;1999.90;999.90;;;24.30;82.40;;;;;;5028375;28;20076;-80
2022/08/03 08:26:12;;;;;;;1999.90;999.90;;;24.50;82.30;;;;;;5026273;28;20045;-83
2022/08/03 08:28:38;;;;;;;1999.90;999.90;;;24.70;83.80;;;;;;5056560;28;20222;-87
2022/08/03 08:31:03;;;;;;;1999.90;999.90;;;24.90;81.20;;;;;;5036990;28;20497;-84
2022/08/03 08:33:30;;;;;;;1999.90;999.90;;;24.90;76.10;;;;;;5023687;28;20493;-82
2022/08/03 08:35:55;;;;;;;1999.90;999.90;;;24.80;76.10;;;;;;5036434;28;20037;-81
2022/08/03 08:38:22;;;;;;;1999.90;999.90;;;25.10;76.20;;;;;;5037419;28;20126;-85
2022/08/03 08:40:49;;;;;;;1999.90;999.90;;;25.20;77.20;;;;;;5035947;28;20135;-81
2022/08/03 08:43:14;;;;;;;1999.90;999.90;;;25.40;73.10;;;;;;5032174;28;20088;-81
2022/08/03 08:45:41;;;;;;;1999.90;999.90;;;25.80;65.20;;;;;;5032010;28;20033;-81
2022/08/03 08:48:08;;;;;;;1999.90;877.88;;;26.00;65.50;;;;;;5012517;28;20489;-83
2022/08/03 08:50:36;;;;;;;1999.90;999.90;;;26.00;63.50;;;;;;5029333;28;20067;-84
2022/08/03 08:53:02;;;;;;;1999.90;703.50;;;26.30;64.30;;;;;;5005672;28;20252;-81
2022/08/03 08:55:29;;;;;;;1999.90;808.80;;;26.60;61.00;;;;;;5023725;28;20489;-82
2022/08/03 08:58:00;;;;;;;1999.90;625.13;;;26.70;56.20;;;;;;5043622;28;20028;-82
2022/08/03 09:00:26;;;;;;;1999.90;874.28;;;26.40;58.40;;;;;;5035293;28;20496;-82
2022/08/03 09:02:52;;;;;;;1999.90;765.10;;;26.60;60.90;;;;;;5002572;23;20101;-90
2022/08/03 09:05:19;;;;;;;1999.90;714.03;;;26.70;57.00;;;;;;4846695;28;20463;-87
2022/08/03 09:07:57;;;;;;;1999.90;646.25;;;26.90;52.60;;;;;;4321140;28;20880;-90
2022/08/03 09:10:23;;;;;;;1999.90;769.45;;;26.90;54.00;;;;;;4965129;28;20030;-89
2022/08/03 09:12:51;;;;;;;1999.90;434.15;;;27.00;51.90;;;;;;4960884;28;20027;-88
2022/08/03 09:15:21;;;;;;;1999.90;687.08;;;27.00;52.10;;;;;;4981404;28;20109;-88
2022/08/03 09:17:47;;;;;;;1999.90;516.60;;;26.90;49.60;;;;;;4998826;28;20034;-88
2022/08/03 09:20:13;;;;;;;1999.90;757.17;;;27.30;51.50;;;;;;4975733;28;20494;-89
2022/08/03 09:23:09;;;;;;;1999.90;862.58;;;27.50;50.00;;;;;;4967956;28;20028;-89
2022/08/03 09:25:40;;;;;;;1999.90;775.63;;;27.30;47.30;;;;;;4966124;28;20039;-89
2022/08/03 09:28:11;;;;;;;1999.90;931.00;;;27.60;50.50;;;;;;4961101;28;20050;-88
2022/08/03 09:30:39;;;;;;;1999.90;592.67;;;27.70;45.20;;;;;;4971196;28;20039;-88
2022/08/03 09:33:08;;;;;;;1999.90;567.35;;;28.10;48.20;;;;;;4972536;28;20031;-90
2022/08/03 09:35:42;;;;;;;1999.90;513.13;;;27.80;47.90;;;;;;4996018;23;20038;-80
2022/08/03 09:38:10;;;;;;;1999.90;949.33;;;28.20;52.40;;;;;;4926993;28;20449;-91
2022/08/03 09:40:36;;;;;;;1999.90;999.90;;;28.50;43.80;;;;;;4898717;28;20560;-88
2022/08/03 09:43:02;;;;;;;1999.90;999.90;;;28.80;41.30;;;;;;4901252;28;20827;-86
2022/08/03 09:45:28;;;;;;;1999.90;999.90;;;28.40;42.90;;;;;;4866507;28;20380;-84
2022/08/03 09:47:56;;;;;;;1999.90;850.13;;;28.40;43.90;;;;;;4894360;28;20038;-85
2022/08/03 09:50:22;;;;;;;1999.90;896.72;;;28.70;45.50;;;;;;4990585;28;20046;-78
2022/08/03 09:52:50;;;;;;;1923.70;999.90;;;28.60;44.70;;;;;;4959798;28;20030;-84
2022/08/03 09:55:20;;;;;;;1999.90;963.75;;;28.40;40.40;;;;;;4893181;28;20375;-86
2022/08/03 09:57:46;;;;;;;1999.90;999.90;;;28.70;42.20;;;;;;4988006;22;20050;-82
2022/08/03 10:03:04;;;;;;;1999.90;999.90;;;28.80;43.60;;;;;;4981607;28;20057;-85
2022/08/03 10:05:33;;;;;;;1999.90;999.90;;;29.20;44.00;;;;;;4935523;28;20394;-87
2022/08/03 10:08:14;;;;;;;1999.90;999.90;;;29.10;40.20;;;;;;4879488;28;20332;-94
2022/08/03 10:10:45;;;;;;;1999.90;999.90;;;28.80;40.90;;;;;;4900650;28;20023;-88
2022/08/03 10:13:18;;;;;;;1999.90;942.08;;;29.00;39.70;;;;;;4948744;28;20088;-82
2022/08/03 10:16:35;;;;;;;1999.90;999.90;;;29.10;41.90;;;;;;4873648;28;20019;-87
2022/08/03 10:19:06;;;;;;;1529.43;988.83;;;29.40;37.70;;;;;;4838907;28;20606;-85
2022/08/03 10:21:36;;;;;;;1999.90;999.90;;;29.40;38.00;;;;;;4915774;28;20033;-84
2022/08/03 10:24:05;;;;;;;1999.90;999.90;;;29.10;37.70;;;;;;4960326;28;20407;-90
2022/08/03 10:26:37;;;;;;;1358.37;999.90;;;29.60;39.50;;;;;;4782045;28;20503;-81
2022/08/03 10:29:20;;;;;;;1999.90;999.90;;;29.50;36.20;;;;;;4780744;28;21161;-83
2022/08/03 10:31:47;;;;;;;1619.03;999.90;;;29.30;38.50;;;;;;4922581;28;20074;-80
2022/08/03 10:34:23;;;;;;;1955.95;999.90;;;29.00;36.10;;;;;;4810627;28;20316;-81
2022/08/03 10:36:55;;;;;;;1999.90;999.90;;;29.60;37.50;;;;;;4747962;28;20241;-81
2022/08/03 10:39:23;;;;;;;1999.90;999.90;;;29.70;37.50;;;;;;4761426;28;20694;-78
2022/08/03 10:42:02;;;;;;;1999.90;988.30;;;30.10;40.90;;;;;;4761371;28;20491;-78
2022/08/03 10:44:39;;;;;;;1999.90;999.90;;;30.30;40.30;;;;;;4773165;28;20411;-82
2022/08/03 10:47:05;;;;;;;1999.90;999.90;;;30.20;37.20;;;;;;4790162;28;20471;-79
2022/08/03 10:49:32;;;;;;;1830.78;999.90;;;30.30;39.50;;;;;;4780302;28;20467;-83
2022/08/03 10:51:58;;;;;;;1999.90;999.90;;;30.20;35.90;;;;;;4790270;28;20286;-78
2022/08/03 10:54:36;;;;;;;1999.90;999.90;;;30.10;41.20;;;;;;4792858;28;20417;-81
2022/08/03 10:59:47;;;;;;;1174.78;994.83;;;30.60;33.00;;;;;;4788611;28;20361;-89
2022/08/03 11:05:27;;;;;;;1999.90;999.90;;;31.10;34.50;;;;;;4814578;23;20608;-86
2022/08/03 11:08:23;;;;;;;938.95;863.85;;;31.60;34.40;;;;;;4670442;28;20533;-86
2022/08/03 11:10:53;;;;;;;953.10;868.85;;;32.30;29.60;;;;;;4596788;28;21648;-86
2022/08/03 11:13:35;;;;;;;1863.55;999.90;;;33.00;30.00;;;;;;4698476;28;20470;-86
2022/08/03 11:16:44;;;;;;;1145.57;960.60;;;32.30;34.30;;;;;;4727070;28;20515;-86
2022/08/03 11:19:16;;;;;;;;;;;32.90;33.00;;;;;;4909955;28;20422;-86
2022/08/03 11:21:49;;;;;;;574.50;539.30;;;33.30;30.50;;;;;;4483065;28;21081;-86
2022/08/03 11:24:39;;;;;;;936.13;859.22;;;33.70;28.40;;;;;;4485766;28;20469;-91
2022/08/03 11:27:23;;;;;;;886.85;824.92;;;33.00;29.60;;;;;;4944788;28;20028;-87
2022/08/03 11:30:09;;;;;;;1276.30;997.55;;;33.70;27.90;;;;;;4961696;28;20078;-86
2022/08/03 11:32:44;;;;;;;1003.80;905.08;;;33.40;29.20;;;;;;4942204;28;20040;-87
2022/08/03 11:35:10;;;;;;;1120.85;978.03;;;33.50;28.10;;;;;;4943613;28;20047;-87
2022/08/03 11:37:55;;;;;;;890.65;825.03;;;33.50;29.60;;;;;;4957765;28;20050;-86
2022/08/03 11:40:37;;;;;;;1016.78;926.97;;;33.90;27.80;;;;;;4957847;28;20036;-86
2022/08/03 11:43:08;;;;;;;897.53;820.65;;;34.40;27.00;;;;;;4952120;28;20031;-87
2022/08/03 11:45:35;;;;;;;811.75;755.75;;;34.50;26.40;;;;;;4923301;28;20358;-87
2022/08/03 11:51:28;;;;;;;1007.53;908.70;;;34.20;26.30;;;;;;4255682;28;20059;-87
2022/08/03 11:53:56;;;;;;;1031.85;935.40;;;34.20;29.80;;;;;;4960671;28;20027;-88
2022/08/03 11:56:22;;;;;;;1150.88;963.78;;;34.40;26.90;;;;;;4950446;28;20085;-89
2022/08/03 11:58:52;;;;;;;1739.95;999.90;;;34.80;28.90;;;;;;4943148;28;20027;-89
2022/08/03 12:01:19;;;;;;;1226.72;995.47;;;33.90;29.10;;;;;;4948296;28;20035;-89
2022/08/03 12:03:45;;;;;;;1615.80;999.90;;;35.10;28.20;;;;;;4955061;28;20590;-88
2022/08/03 12:06:13;;;;;;;1060.72;955.35;;;34.70;27.70;;;;;;4959083;28;20027;-88
2022/08/03 12:08:40;;;;;;;1378.68;999.90;;;35.50;25.90;;;;;;4864063;28;20240;-91
2022/08/03 12:11:09;;;;;;;1374.05;999.25;;;36.00;26.50;;;;;;4876537;29;20031;-92
2022/08/03 12:13:39;;;;;;;1072.78;964.95;;;35.80;26.50;;;;;;4956725;28;20035;-91
2022/08/03 12:16:05;;;;;;;951.17;876.40;;;35.00;25.50;;;;;;4956104;28;20569;-91
2022/08/03 12:18:33;;;;;;;981.33;901.42;;;36.40;22.00;;;;;;4959842;29;20051;-90
2022/08/03 12:21:09;;;;;;;1322.05;995.30;;;36.40;23.40;;;;;;4965756;29;20032;-92
2022/08/03 12:23:37;;;;;;;735.97;674.88;;;36.90;22.80;;;;;;4962038;29;20039;-90
2022/08/03 12:26:22;;;;;;;1056.53;956.30;;;37.10;22.60;;;;;;4963306;28;20036;-92
2022/08/03 12:28:48;;;;;;;1187.70;925.50;;;36.30;23.60;;;;;;4961460;28;20035;-90